Terminal Aerodrome Forecast
Issued by NWS

Home | Current Version | Previous Version | Text Only | Print | Product List | Glossary On
Versions: 1 2 3 4 5 6 7 8 9 10 11 12 13 14 15 16 17
802
FTUS45 KTFX 050536
TAFLWT
TAF
KLWT 050536Z 0506/0606 30010G20KT P6SM OVC009
     FM050800 32015KT P6SM OVC015
      TEMPO 0509/0513 2SM -SN OVC007
     FM051600 32015KT P6SM OVC030 PROB30 0518/0521 1SM -SHSN OVC015
     FM060300 31008KT P6SM OVC015=

USA.gov is the U.S. government's official web portal to all federal, state and local government web resources and services.